createdAt,value
2018-04-18T00:04:10.581Z,2.97
2018-04-18T00:09:11.814Z,3.20
2018-04-18T00:14:14.052Z,2.80
2018-04-18T00:19:15.203Z,2.57
2018-04-18T00:24:16.576Z,2.87
2018-04-18T00:29:17.731Z,2.83
2018-04-18T00:34:19.371Z,2.67
2018-04-18T00:39:20.512Z,3.03
2018-04-18T00:44:21.656Z,3.10
2018-04-18T00:49:23.216Z,2.50
2018-04-18T00:54:24.378Z,3.00
2018-04-18T00:59:25.545Z,2.70
2018-04-18T01:04:27.050Z,2.97
2018-04-18T01:09:29.994Z,3.00
2018-04-18T01:14:31.186Z,2.80
2018-04-18T01:19:33.299Z,2.87
2018-04-18T01:24:34.418Z,2.80
2018-04-18T01:29:35.581Z,3.10
2018-04-18T01:34:36.726Z,2.80
2018-04-18T01:39:38.108Z,4.97
2018-04-18T01:44:40.275Z,3.00
2018-04-18T01:49:41.509Z,3.43
2018-04-18T01:54:43.382Z,2.90
2018-04-18T01:59:44.533Z,2.97
2018-04-18T02:04:45.675Z,3.10
2018-04-18T02:09:47.907Z,2.70
2018-04-18T02:14:49.883Z,3.20
2018-04-18T02:19:51.006Z,2.93
2018-04-18T02:24:53.338Z,3.60
2018-04-18T02:29:54.847Z,2.97
2018-04-18T02:34:55.983Z,3.37
2018-04-18T02:39:57.548Z,2.97
2018-04-18T02:44:59.423Z,3.43
2018-04-18T02:50:00.575Z,3.23
2018-04-18T02:55:02.468Z,3.80
2018-04-18T03:00:03.648Z,3.17
2018-04-18T03:05:04.835Z,3.23
2018-04-18T03:10:06.912Z,3.73
2018-04-18T03:15:08.050Z,3.20
2018-04-18T03:20:10.838Z,3.47
2018-04-18T03:25:11.980Z,3.60
2018-04-18T03:30:13.111Z,3.10
2018-04-18T03:35:15.756Z,4.13
2018-04-18T03:40:16.952Z,3.70
2018-04-18T03:45:18.106Z,3.67
2018-04-18T03:50:19.455Z,3.60
2018-04-18T03:55:21.301Z,3.80
2018-04-18T04:00:26.091Z,4.57
2018-04-18T04:05:28.353Z,4.10
2018-04-18T04:10:29.536Z,4.50
2018-04-18T04:15:30.593Z,5.33
2018-04-18T04:20:50.628Z,5.33
2018-04-18T04:25:52.527Z,4.80
2018-04-18T04:30:54.386Z,4.40
2018-04-18T04:35:58.592Z,4.30
2018-04-18T04:40:59.695Z,4.40
2018-04-18T04:46:01.546Z,5.00
2018-04-18T04:51:02.676Z,4.90
2018-04-18T04:56:03.770Z,5.17
2018-04-18T05:01:04.917Z,4.70
2018-04-18T05:06:06.869Z,4.93
2018-04-18T05:11:09.680Z,5.10
2018-04-18T05:16:12.544Z,5.20
2018-04-18T05:21:15.411Z,5.07
2018-04-18T05:26:18.252Z,5.03
2018-04-18T05:31:19.380Z,5.30
2018-04-18T05:36:21.317Z,5.50
2018-04-18T05:41:23.399Z,4.80
2018-04-18T05:46:25.594Z,5.20
2018-04-18T05:51:27.458Z,5.00
2018-04-18T05:56:30.350Z,4.63
2018-04-18T06:01:31.453Z,4.80
2018-04-18T06:06:34.320Z,5.10
2018-04-18T06:11:37.306Z,4.63
2018-04-18T06:16:40.192Z,4.93
2018-04-18T06:21:43.168Z,4.83
2018-04-18T06:26:45.999Z,5.07
2018-04-18T06:31:47.858Z,5.07
2018-04-18T06:36:50.493Z,5.10
2018-04-18T06:41:53.355Z,5.17
2018-04-18T06:46:55.713Z,6.10
2018-04-18T06:51:56.834Z,6.27
2018-04-18T06:56:59.820Z,6.37
2018-04-18T07:02:01.668Z,6.70
2018-04-18T07:07:02.809Z,7.13
2018-04-18T07:12:03.932Z,6.67
2018-04-18T07:17:05.770Z,6.87
2018-04-18T07:22:07.942Z,6.87
2018-04-18T07:27:11.317Z,6.67
2018-04-18T07:32:13.901Z,6.33
2018-04-18T07:37:15.818Z,6.10
2018-04-18T07:42:16.941Z,5.60
2018-04-18T07:47:19.794Z,5.70
2018-04-18T07:52:21.647Z,5.37
2018-04-18T07:57:23.148Z,5.45
2018-04-18T08:02:24.246Z,5.30
2018-04-18T08:07:25.729Z,5.00
2018-04-18T08:12:27.586Z,4.67
2018-04-18T08:17:30.159Z,4.60
2018-04-18T08:22:32.033Z,4.80
2018-04-18T08:27:33.116Z,5.10
2018-04-18T08:32:34.222Z,4.50
2018-04-18T08:37:35.362Z,4.53
2018-04-18T08:42:37.194Z,4.93
2018-04-18T08:47:39.155Z,4.67
2018-04-18T08:52:41.022Z,4.70
2018-04-18T08:57:43.877Z,4.70
2018-04-18T09:02:45.389Z,5.00
2018-04-18T09:07:46.673Z,4.57
2018-04-18T09:12:49.485Z,4.53
2018-04-18T09:17:52.412Z,4.30
2018-04-18T09:22:54.231Z,4.63
2018-04-18T09:27:57.094Z,4.47
2018-04-18T09:32:58.319Z,4.20
2018-04-18T09:37:59.518Z,4.33
2018-04-18T09:43:03.366Z,4.40
2018-04-18T09:48:06.221Z,4.03
2018-04-18T09:53:07.324Z,4.07
2018-04-18T09:58:08.465Z,4.43
2018-04-18T10:03:14.256Z,4.10
2018-04-18T10:08:16.474Z,3.80
2018-04-18T10:13:18.350Z,3.93
2018-04-18T10:18:20.728Z,3.70
2018-04-18T10:23:22.912Z,3.80
2018-04-18T10:28:25.111Z,3.63
2018-04-18T10:33:26.659Z,3.47
2018-04-18T10:38:28.671Z,2.80
2018-04-18T10:43:31.553Z,2.93
2018-04-18T10:48:34.396Z,3.07
2018-04-18T10:53:37.278Z,3.13
2018-04-18T10:58:38.752Z,3.10
2018-04-18T11:03:40.595Z,3.07
2018-04-18T11:08:41.677Z,2.97
2018-04-18T11:13:45.845Z,3.23
2018-04-18T11:18:47.309Z,3.23
2018-04-18T11:23:50.173Z,3.23
2018-04-18T11:28:51.635Z,3.00
2018-04-18T11:33:53.098Z,3.17
2018-04-18T11:38:54.219Z,2.73
2018-04-18T11:43:55.975Z,2.97
2018-04-18T11:48:57.553Z,2.83
2018-04-18T11:54:00.633Z,2.37
2018-04-18T11:59:03.545Z,2.50
2018-04-18T12:04:05.018Z,2.30
2018-04-18T12:09:07.884Z,2.73
2018-04-18T12:14:09.058Z,2.60
2018-04-18T12:19:11.308Z,2.83
2018-04-18T12:24:13.168Z,2.63
2018-04-18T12:29:16.037Z,2.87
2018-04-18T12:34:18.918Z,2.50
2018-04-18T12:39:21.163Z,2.80
2018-04-18T12:44:22.308Z,2.60
2018-04-18T12:49:24.506Z,2.67
2018-04-18T12:54:25.991Z,2.70
2018-04-18T12:59:27.090Z,3.17
2018-04-18T13:04:29.965Z,2.80
2018-04-18T13:09:31.091Z,2.83
2018-04-18T13:14:32.229Z,2.50
2018-04-18T13:19:34.858Z,2.60
2018-04-18T13:24:36.015Z,2.60
2018-04-18T13:29:37.138Z,2.70
2018-04-18T13:34:39.333Z,2.73
2018-04-18T13:39:41.026Z,2.53
2018-04-18T13:44:43.888Z,2.80
2018-04-18T13:49:46.126Z,3.00
2018-04-18T13:54:47.651Z,2.63
2018-04-18T13:59:50.546Z,3.13
2018-04-18T14:04:53.408Z,2.80
2018-04-18T14:09:56.237Z,2.50
2018-04-18T14:14:57.337Z,2.50
2018-04-18T14:20:00.204Z,2.10
2018-04-18T14:25:01.304Z,2.30
2018-04-18T14:30:02.414Z,2.20
2018-04-18T14:35:03.631Z,2.10
2018-04-18T14:40:05.469Z,2.43
2018-04-18T14:45:06.569Z,2.00
2018-04-18T14:50:09.477Z,2.07
2018-04-18T14:55:10.569Z,2.50
2018-04-18T15:00:12.422Z,2.33
2018-04-18T15:05:13.564Z,2.47
2018-04-18T15:10:14.625Z,2.20
2018-04-18T15:15:17.477Z,2.23
2018-04-18T15:20:19.792Z,2.40
2018-04-18T15:25:22.939Z,2.33
2018-04-18T15:30:24.049Z,2.13
2018-04-18T15:35:25.561Z,2.17
2018-04-18T15:40:26.684Z,2.33
2018-04-18T15:45:27.828Z,2.30
2018-04-18T15:50:28.999Z,2.40
2018-04-18T15:55:31.865Z,2.10
2018-04-18T16:00:33.725Z,2.67
2018-04-18T16:05:36.589Z,2.17
2018-04-18T16:10:38.987Z,2.10
2018-04-18T16:15:41.201Z,2.30
2018-04-18T16:20:42.665Z,2.60
2018-04-18T16:25:44.901Z,2.53
2018-04-18T16:30:46.026Z,2.30
2018-04-18T16:35:47.198Z,2.37
2018-04-18T16:40:48.753Z,2.40
2018-04-18T16:45:49.881Z,2.30
2018-04-18T16:50:51.713Z,2.20
2018-04-18T16:55:52.821Z,2.27
2018-04-18T17:00:54.301Z,2.13
2018-04-18T17:05:55.381Z,2.20
2018-04-18T17:10:57.053Z,2.07
2018-04-18T17:15:59.949Z,2.13
2018-04-18T17:21:01.437Z,2.07
2018-04-18T17:26:03.706Z,2.10
2018-04-18T17:31:11.828Z,2.10
2018-04-18T17:36:13.665Z,2.20
2018-04-18T17:41:14.758Z,2.27
2018-04-18T17:46:16.224Z,2.20
2018-04-18T17:51:17.433Z,2.33
2018-04-18T17:56:19.302Z,2.17
2018-04-18T18:01:20.799Z,2.47
2018-04-18T18:06:23.032Z,2.23
2018-04-18T18:11:24.227Z,2.10
2018-04-18T18:16:25.340Z,2.60
2018-04-18T18:21:28.284Z,2.30
2018-04-18T18:26:29.407Z,2.40
2018-04-18T18:31:30.723Z,2.03
2018-04-18T18:36:32.854Z,2.30
2018-04-18T18:41:34.362Z,2.60
2018-04-18T18:46:37.224Z,2.50
2018-04-18T18:51:38.332Z,2.60
2018-04-18T18:56:39.463Z,2.70
2018-04-18T19:01:42.146Z,4.90
2018-04-18T19:06:45.023Z,7.67
2018-04-18T19:11:46.227Z,6.20
2018-04-18T19:16:48.616Z,3.43
2018-04-18T19:21:50.525Z,3.50
2018-04-18T19:26:51.716Z,3.13
2018-04-18T19:31:52.881Z,4.40
2018-04-18T19:36:54.858Z,4.43
2018-04-18T19:41:58.494Z,4.57
2018-04-18T19:46:59.665Z,7.87
2018-04-18T19:52:00.873Z,5.40
2018-04-18T19:57:02.008Z,8.47
2018-04-18T20:02:03.101Z,6.27
2018-04-18T20:07:05.959Z,4.67
2018-04-18T20:12:07.086Z,5.57
2018-04-18T20:17:08.193Z,5.00
2018-04-18T20:22:10.788Z,3.93
2018-04-18T20:27:12.679Z,3.67
2018-04-18T20:32:14.144Z,3.30
2018-04-18T20:37:16.626Z,2.83
2018-04-18T20:42:19.338Z,3.00
2018-04-18T20:47:21.181Z,2.80
2018-04-18T20:52:23.066Z,3.30
2018-04-18T20:57:24.176Z,3.23
2018-04-18T21:02:25.258Z,3.27
2018-04-18T21:07:26.353Z,3.10
2018-04-18T21:12:28.217Z,3.00
2018-04-18T21:17:29.822Z,2.87
2018-04-18T21:22:31.655Z,3.20
2018-04-18T21:27:32.773Z,3.50
2018-04-18T21:32:34.507Z,3.43
2018-04-18T21:37:37.941Z,3.33
2018-04-18T21:42:39.022Z,3.10
2018-04-18T21:47:41.725Z,3.27
2018-04-18T21:52:43.178Z,3.47
2018-04-18T21:57:46.014Z,3.13
2018-04-18T22:02:47.716Z,3.20
2018-04-18T22:07:48.883Z,3.33
2018-04-18T22:12:50.709Z,3.30
2018-04-18T22:17:52.569Z,3.63
2018-04-18T22:22:54.044Z,3.10
2018-04-18T22:27:55.223Z,3.13
2018-04-18T22:32:56.305Z,3.43
2018-04-18T22:37:57.381Z,3.50
2018-04-18T22:42:59.283Z,2.87
2018-04-18T22:48:00.805Z,3.10
2018-04-18T22:53:01.894Z,3.30
2018-04-18T22:58:03.478Z,3.20
2018-04-18T23:03:04.590Z,3.07
2018-04-18T23:08:05.732Z,3.23
2018-04-18T23:13:07.629Z,3.17
2018-04-18T23:18:09.473Z,3.50
2018-04-18T23:23:10.973Z,3.50
2018-04-18T23:28:12.824Z,3.27
2018-04-18T23:33:15.277Z,3.60
2018-04-18T23:38:16.369Z,3.40
2018-04-18T23:43:18.579Z,3.67
2018-04-18T23:48:20.538Z,3.70
2018-04-18T23:53:21.942Z,3.77
2018-04-18T23:58:24.242Z,3.30
